sensor_id;sensor_type;location;lat;lon;timestamp;P1;durP1;ratioP1;P2;durP2;ratioP2
19863;SDS011;10094;48.820;9.226;2023-02-05T00:04:51;15.25;;;9.57;;
19863;SDS011;10094;48.820;9.226;2023-02-05T00:11:34;20.15;;;9.85;;
19863;SDS011;10094;48.820;9.226;2023-02-05T00:18:16;19.42;;;9.50;;
19863;SDS011;10094;48.820;9.226;2023-02-05T00:24:58;18.85;;;9.35;;
19863;SDS011;10094;48.820;9.226;2023-02-05T00:31:41;13.77;;;6.93;;
19863;SDS011;10094;48.820;9.226;2023-02-05T00:38:23;14.15;;;6.95;;
19863;SDS011;10094;48.820;9.226;2023-02-05T00:45:06;12.30;;;6.53;;
19863;SDS011;10094;48.820;9.226;2023-02-05T00:51:49;14.65;;;7.65;;
19863;SDS011;10094;48.820;9.226;2023-02-05T00:58:31;19.45;;;9.43;;
19863;SDS011;10094;48.820;9.226;2023-02-05T01:05:14;15.57;;;9.82;;
19863;SDS011;10094;48.820;9.226;2023-02-05T01:11:57;15.30;;;7.88;;
19863;SDS011;10094;48.820;9.226;2023-02-05T01:18:41;10.43;;;6.88;;
19863;SDS011;10094;48.820;9.226;2023-02-05T01:25:24;8.38;;;6.25;;
19863;SDS011;10094;48.820;9.226;2023-02-05T01:32:06;12.50;;;6.18;;
19863;SDS011;10094;48.820;9.226;2023-02-05T01:38:48;9.55;;;5.85;;
19863;SDS011;10094;48.820;9.226;2023-02-05T01:45:39;12.02;;;6.20;;
19863;SDS011;10094;48.820;9.226;2023-02-05T01:52:31;9.93;;;6.47;;
19863;SDS011;10094;48.820;9.226;2023-02-05T01:59:20;11.85;;;6.65;;
19863;SDS011;10094;48.820;9.226;2023-02-05T02:06:06;10.07;;;7.10;;
19863;SDS011;10094;48.820;9.226;2023-02-05T02:12:49;9.05;;;6.05;;
19863;SDS011;10094;48.820;9.226;2023-02-05T02:33:58;11.27;;;6.45;;
19863;SDS011;10094;48.820;9.226;2023-02-05T02:40:50;12.57;;;6.90;;
19863;SDS011;10094;48.820;9.226;2023-02-05T02:47:49;10.32;;;6.72;;
19863;SDS011;10094;48.820;9.226;2023-02-05T02:54:36;10.70;;;6.82;;
19863;SDS011;10094;48.820;9.226;2023-02-05T03:01:23;10.32;;;6.43;;
19863;SDS011;10094;48.820;9.226;2023-02-05T03:08:12;15.55;;;7.32;;
19863;SDS011;10094;48.820;9.226;2023-02-05T03:15:06;13.57;;;8.30;;
19863;SDS011;10094;48.820;9.226;2023-02-05T03:21:53;14.15;;;8.30;;
19863;SDS011;10094;48.820;9.226;2023-02-05T03:28:38;15.32;;;8.45;;
19863;SDS011;10094;48.820;9.226;2023-02-05T03:35:30;14.18;;;8.40;;
19863;SDS011;10094;48.820;9.226;2023-02-05T03:42:58;13.80;;;8.10;;
19863;SDS011;10094;48.820;9.226;2023-02-05T03:50:23;13.65;;;7.78;;
19863;SDS011;10094;48.820;9.226;2023-02-05T03:57:08;14.68;;;8.43;;
19863;SDS011;10094;48.820;9.226;2023-02-05T04:04:00;17.85;;;8.25;;
19863;SDS011;10094;48.820;9.226;2023-02-05T04:10:43;18.00;;;8.07;;
19863;SDS011;10094;48.820;9.226;2023-02-05T04:17:27;15.50;;;9.63;;
19863;SDS011;10094;48.820;9.226;2023-02-05T04:24:09;16.35;;;8.75;;
19863;SDS011;10094;48.820;9.226;2023-02-05T04:30:52;15.80;;;9.05;;
19863;SDS011;10094;48.820;9.226;2023-02-05T04:37:34;16.17;;;8.50;;
19863;SDS011;10094;48.820;9.226;2023-02-05T04:44:17;13.40;;;8.07;;
19863;SDS011;10094;48.820;9.226;2023-02-05T04:51:04;11.80;;;8.50;;
19863;SDS011;10094;48.820;9.226;2023-02-05T04:57:47;12.95;;;7.50;;
19863;SDS011;10094;48.820;9.226;2023-02-05T05:04:32;17.52;;;7.43;;
19863;SDS011;10094;48.820;9.226;2023-02-05T05:11:15;13.57;;;7.82;;
19863;SDS011;10094;48.820;9.226;2023-02-05T05:17:59;10.73;;;7.22;;
19863;SDS011;10094;48.820;9.226;2023-02-05T05:24:42;14.20;;;7.40;;
19863;SDS011;10094;48.820;9.226;2023-02-05T05:31:24;16.88;;;7.82;;
19863;SDS011;10094;48.820;9.226;2023-02-05T05:38:06;15.90;;;8.38;;
19863;SDS011;10094;48.820;9.226;2023-02-05T05:44:49;15.13;;;8.82;;
19863;SDS011;10094;48.820;9.226;2023-02-05T05:51:33;16.48;;;9.27;;
19863;SDS011;10094;48.820;9.226;2023-02-05T05:58:15;16.67;;;8.30;;
19863;SDS011;10094;48.820;9.226;2023-02-05T06:04:57;16.30;;;9.27;;
19863;SDS011;10094;48.820;9.226;2023-02-05T06:11:40;16.25;;;8.93;;
19863;SDS011;10094;48.820;9.226;2023-02-05T06:18:22;13.63;;;8.70;;
19863;SDS011;10094;48.820;9.226;2023-02-05T06:25:05;16.25;;;8.27;;
19863;SDS011;10094;48.820;9.226;2023-02-05T06:31:48;14.07;;;8.43;;
19863;SDS011;10094;48.820;9.226;2023-02-05T06:38:30;15.25;;;8.48;;
19863;SDS011;10094;48.820;9.226;2023-02-05T06:45:13;16.30;;;8.75;;
19863;SDS011;10094;48.820;9.226;2023-02-05T06:51:55;16.50;;;8.43;;
19863;SDS011;10094;48.820;9.226;2023-02-05T06:58:38;14.32;;;8.07;;
19863;SDS011;10094;48.820;9.226;2023-02-05T07:05:20;13.27;;;7.65;;
19863;SDS011;10094;48.820;9.226;2023-02-05T07:12:02;16.17;;;8.77;;
19863;SDS011;10094;48.820;9.226;2023-02-05T07:18:45;17.00;;;8.30;;
19863;SDS011;10094;48.820;9.226;2023-02-05T07:25:27;15.05;;;7.82;;
19863;SDS011;10094;48.820;9.226;2023-02-05T07:32:13;23.40;;;9.75;;
19863;SDS011;10094;48.820;9.226;2023-02-05T07:38:56;12.18;;;7.65;;
19863;SDS011;10094;48.820;9.226;2023-02-05T07:45:38;14.07;;;8.10;;
19863;SDS011;10094;48.820;9.226;2023-02-05T07:52:20;15.20;;;8.20;;
19863;SDS011;10094;48.820;9.226;2023-02-05T07:59:03;16.75;;;9.30;;
19863;SDS011;10094;48.820;9.226;2023-02-05T08:05:45;14.30;;;8.25;;
19863;SDS011;10094;48.820;9.226;2023-02-05T08:12:27;12.88;;;7.90;;
19863;SDS011;10094;48.820;9.226;2023-02-05T08:19:14;18.83;;;8.32;;
19863;SDS011;10094;48.820;9.226;2023-02-05T08:25:57;16.65;;;7.88;;
19863;SDS011;10094;48.820;9.226;2023-02-05T08:32:40;18.38;;;8.85;;
19863;SDS011;10094;48.820;9.226;2023-02-05T08:39:22;15.38;;;8.25;;
19863;SDS011;10094;48.820;9.226;2023-02-05T08:46:07;12.68;;;7.78;;
19863;SDS011;10094;48.820;9.226;2023-02-05T08:52:49;12.85;;;7.55;;
19863;SDS011;10094;48.820;9.226;2023-02-05T08:59:32;20.63;;;7.88;;
19863;SDS011;10094;48.820;9.226;2023-02-05T09:06:15;17.00;;;8.27;;
19863;SDS011;10094;48.820;9.226;2023-02-05T09:12:57;11.90;;;8.20;;
19863;SDS011;10094;48.820;9.226;2023-02-05T09:19:40;15.43;;;8.63;;
19863;SDS011;10094;48.820;9.226;2023-02-05T09:26:23;16.80;;;8.18;;
19863;SDS011;10094;48.820;9.226;2023-02-05T09:33:06;22.58;;;9.13;;
19863;SDS011;10094;48.820;9.226;2023-02-05T09:39:49;16.02;;;9.40;;
19863;SDS011;10094;48.820;9.226;2023-02-05T09:53:58;17.95;;;10.35;;
19863;SDS011;10094;48.820;9.226;2023-02-05T10:07:56;14.52;;;9.88;;
19863;SDS011;10094;48.820;9.226;2023-02-05T10:14:47;20.27;;;10.45;;
19863;SDS011;10094;48.820;9.226;2023-02-05T10:21:42;19.42;;;10.57;;
19863;SDS011;10094;48.820;9.226;2023-02-05T10:36:01;16.83;;;9.95;;
19863;SDS011;10094;48.820;9.226;2023-02-05T10:42:50;16.73;;;10.90;;
19863;SDS011;10094;48.820;9.226;2023-02-05T10:49:56;21.38;;;10.77;;
19863;SDS011;10094;48.820;9.226;2023-02-05T10:56:44;19.67;;;11.45;;
19863;SDS011;10094;48.820;9.226;2023-02-05T11:03:26;18.85;;;10.75;;
19863;SDS011;10094;48.820;9.226;2023-02-05T11:10:25;18.73;;;10.13;;
19863;SDS011;10094;48.820;9.226;2023-02-05T11:23:58;20.00;;;10.45;;
19863;SDS011;10094;48.820;9.226;2023-02-05T11:30:40;14.93;;;10.15;;
19863;SDS011;10094;48.820;9.226;2023-02-05T11:37:32;19.70;;;10.75;;
19863;SDS011;10094;48.820;9.226;2023-02-05T11:44:18;20.48;;;11.85;;
19863;SDS011;10094;48.820;9.226;2023-02-05T11:51:07;18.85;;;10.98;;
19863;SDS011;10094;48.820;9.226;2023-02-05T11:58:02;17.95;;;11.15;;
19863;SDS011;10094;48.820;9.226;2023-02-05T12:04:47;16.85;;;9.80;;
19863;SDS011;10094;48.820;9.226;2023-02-05T12:33:14;19.15;;;11.32;;
19863;SDS011;10094;48.820;9.226;2023-02-05T13:01:14;16.30;;;9.93;;
19863;SDS011;10094;48.820;9.226;2023-02-05T13:08:45;15.48;;;9.60;;
19863;SDS011;10094;48.820;9.226;2023-02-05T13:15:21;15.77;;;10.38;;
19863;SDS011;10094;48.820;9.226;2023-02-05T13:22:10;11.63;;;8.55;;
19863;SDS011;10094;48.820;9.226;2023-02-05T13:29:32;14.93;;;10.10;;
19863;SDS011;10094;48.820;9.226;2023-02-05T14:04:40;12.00;;;8.73;;
19863;SDS011;10094;48.820;9.226;2023-02-05T14:11:41;6.82;;;5.00;;
19863;SDS011;10094;48.820;9.226;2023-02-05T14:39:18;8.18;;;3.47;;
19863;SDS011;10094;48.820;9.226;2023-02-05T14:46:19;5.05;;;3.10;;
19863;SDS011;10094;48.820;9.226;2023-02-05T14:53:15;5.60;;;3.42;;
19863;SDS011;10094;48.820;9.226;2023-02-05T15:07:07;6.07;;;3.38;;
19863;SDS011;10094;48.820;9.226;2023-02-05T15:21:05;14.23;;;10.45;;
19863;SDS011;10094;48.820;9.226;2023-02-05T15:27:54;12.75;;;10.85;;
19863;SDS011;10094;48.820;9.226;2023-02-05T15:34:41;13.60;;;12.13;;
19863;SDS011;10094;48.820;9.226;2023-02-05T15:41:33;8.18;;;5.85;;
19863;SDS011;10094;48.820;9.226;2023-02-05T15:48:22;8.85;;;6.15;;
19863;SDS011;10094;48.820;9.226;2023-02-05T15:55:09;6.57;;;4.78;;
19863;SDS011;10094;48.820;9.226;2023-02-05T16:09:12;7.60;;;5.45;;
19863;SDS011;10094;48.820;9.226;2023-02-05T16:16:07;5.57;;;4.57;;
19863;SDS011;10094;48.820;9.226;2023-02-05T16:22:57;6.47;;;5.40;;
19863;SDS011;10094;48.820;9.226;2023-02-05T16:29:49;8.32;;;5.50;;
19863;SDS011;10094;48.820;9.226;2023-02-05T16:36:36;7.82;;;5.10;;
19863;SDS011;10094;48.820;9.226;2023-02-05T16:57:31;7.57;;;5.70;;
19863;SDS011;10094;48.820;9.226;2023-02-05T17:04:19;5.65;;;5.05;;
19863;SDS011;10094;48.820;9.226;2023-02-05T17:11:29;7.80;;;5.50;;
19863;SDS011;10094;48.820;9.226;2023-02-05T17:18:23;8.40;;;5.50;;
19863;SDS011;10094;48.820;9.226;2023-02-05T17:25:06;7.93;;;6.38;;
19863;SDS011;10094;48.820;9.226;2023-02-05T17:31:48;10.95;;;8.02;;
19863;SDS011;10094;48.820;9.226;2023-02-05T17:38:31;14.30;;;9.85;;
19863;SDS011;10094;48.820;9.226;2023-02-05T17:45:26;9.95;;;8.90;;
19863;SDS011;10094;48.820;9.226;2023-02-05T17:52:11;11.45;;;8.95;;
19863;SDS011;10094;48.820;9.226;2023-02-05T17:58:56;10.20;;;9.10;;
19863;SDS011;10094;48.820;9.226;2023-02-05T18:05:39;17.63;;;11.40;;
19863;SDS011;10094;48.820;9.226;2023-02-05T18:12:21;7.60;;;6.47;;
19863;SDS011;10094;48.820;9.226;2023-02-05T18:19:04;6.05;;;4.97;;
19863;SDS011;10094;48.820;9.226;2023-02-05T18:25:46;8.93;;;7.10;;
19863;SDS011;10094;48.820;9.226;2023-02-05T18:32:28;6.25;;;4.57;;
19863;SDS011;10094;48.820;9.226;2023-02-05T18:39:11;13.65;;;10.45;;
19863;SDS011;10094;48.820;9.226;2023-02-05T18:45:53;5.45;;;4.78;;
19863;SDS011;10094;48.820;9.226;2023-02-05T18:52:36;5.93;;;5.32;;
19863;SDS011;10094;48.820;9.226;2023-02-05T18:59:18;6.28;;;5.20;;
19863;SDS011;10094;48.820;9.226;2023-02-05T19:06:05;5.85;;;5.25;;
19863;SDS011;10094;48.820;9.226;2023-02-05T19:12:49;8.18;;;6.93;;
19863;SDS011;10094;48.820;9.226;2023-02-05T19:19:31;12.98;;;10.20;;
19863;SDS011;10094;48.820;9.226;2023-02-05T19:26:15;10.23;;;7.22;;
19863;SDS011;10094;48.820;9.226;2023-02-05T19:32:59;7.57;;;6.80;;
19863;SDS011;10094;48.820;9.226;2023-02-05T19:39:41;7.97;;;6.70;;
19863;SDS011;10094;48.820;9.226;2023-02-05T19:46:24;8.80;;;7.43;;
19863;SDS011;10094;48.820;9.226;2023-02-05T19:53:09;8.38;;;7.53;;
19863;SDS011;10094;48.820;9.226;2023-02-05T19:59:51;8.50;;;7.70;;
19863;SDS011;10094;48.820;9.226;2023-02-05T20:06:34;9.07;;;7.95;;
19863;SDS011;10094;48.820;9.226;2023-02-05T20:13:17;9.68;;;8.73;;
19863;SDS011;10094;48.820;9.226;2023-02-05T20:19:59;9.70;;;8.68;;
19863;SDS011;10094;48.820;9.226;2023-02-05T20:26:56;12.02;;;10.20;;
19863;SDS011;10094;48.820;9.226;2023-02-05T20:33:39;12.52;;;11.15;;
19863;SDS011;10094;48.820;9.226;2023-02-05T20:40:21;12.60;;;10.70;;
19863;SDS011;10094;48.820;9.226;2023-02-05T20:47:09;13.82;;;10.52;;
19863;SDS011;10094;48.820;9.226;2023-02-05T20:53:56;12.82;;;10.80;;
19863;SDS011;10094;48.820;9.226;2023-02-05T21:00:39;13.15;;;10.52;;
19863;SDS011;10094;48.820;9.226;2023-02-05T21:07:21;12.43;;;10.57;;
19863;SDS011;10094;48.820;9.226;2023-02-05T21:14:10;11.80;;;10.00;;
19863;SDS011;10094;48.820;9.226;2023-02-05T21:20:52;12.52;;;10.23;;
19863;SDS011;10094;48.820;9.226;2023-02-05T21:27:35;11.90;;;10.35;;
19863;SDS011;10094;48.820;9.226;2023-02-05T21:34:18;13.90;;;12.05;;
19863;SDS011;10094;48.820;9.226;2023-02-05T21:41:10;13.93;;;11.88;;
19863;SDS011;10094;48.820;9.226;2023-02-05T21:47:54;13.77;;;11.30;;
19863;SDS011;10094;48.820;9.226;2023-02-05T21:54:36;15.95;;;12.02;;
19863;SDS011;10094;48.820;9.226;2023-02-05T22:01:28;17.17;;;13.75;;
19863;SDS011;10094;48.820;9.226;2023-02-05T22:08:12;19.85;;;15.45;;
19863;SDS011;10094;48.820;9.226;2023-02-05T22:14:54;19.30;;;14.65;;
19863;SDS011;10094;48.820;9.226;2023-02-05T22:21:38;18.92;;;14.63;;
19863;SDS011;10094;48.820;9.226;2023-02-05T22:28:21;19.27;;;14.77;;
19863;SDS011;10094;48.820;9.226;2023-02-05T22:35:04;20.58;;;15.45;;
19863;SDS011;10094;48.820;9.226;2023-02-05T22:41:46;21.40;;;14.95;;
19863;SDS011;10094;48.820;9.226;2023-02-05T22:48:28;24.73;;;16.33;;
19863;SDS011;10094;48.820;9.226;2023-02-05T22:55:11;25.05;;;17.50;;
19863;SDS011;10094;48.820;9.226;2023-02-05T23:01:53;26.30;;;17.25;;
19863;SDS011;10094;48.820;9.226;2023-02-05T23:08:36;30.67;;;18.90;;
19863;SDS011;10094;48.820;9.226;2023-02-05T23:15:18;28.58;;;19.45;;
19863;SDS011;10094;48.820;9.226;2023-02-05T23:22:01;32.75;;;21.20;;
19863;SDS011;10094;48.820;9.226;2023-02-05T23:28:43;34.83;;;21.83;;
19863;SDS011;10094;48.820;9.226;2023-02-05T23:35:26;37.22;;;22.80;;
19863;SDS011;10094;48.820;9.226;2023-02-05T23:42:09;36.60;;;22.80;;
19863;SDS011;10094;48.820;9.226;2023-02-05T23:48:52;35.47;;;22.27;;
19863;SDS011;10094;48.820;9.226;2023-02-05T23:55:38;36.70;;;21.67;;
